createdAt,value
2017-06-11T00:00:26.491Z,75.06
2017-06-11T00:01:27.065Z,73.91
2017-06-11T00:02:27.646Z,74.77
2017-06-11T00:03:28.226Z,75.45
2017-06-11T00:04:28.805Z,75.54
2017-06-11T00:05:29.383Z,75.06
2017-06-11T00:06:29.962Z,75.06
2017-06-11T00:07:30.544Z,75.63
2017-06-11T00:08:31.130Z,76.02
2017-06-11T00:09:31.709Z,76.31
2017-06-11T00:10:32.288Z,75.54
2017-06-11T00:11:32.868Z,76.02
2017-06-11T00:12:33.461Z,74.68
2017-06-11T00:13:34.039Z,76.40
2017-06-11T00:14:34.620Z,76.12
2017-06-11T00:15:35.213Z,76.02
2017-06-11T00:16:35.791Z,76.31
2017-06-11T00:17:36.371Z,76.59
2017-06-11T00:18:36.948Z,75.92
2017-06-11T00:19:37.528Z,76.98
2017-06-11T00:20:38.107Z,77.08
2017-06-11T00:21:38.698Z,76.21
2017-06-11T00:22:39.279Z,76.50
2017-06-11T00:23:39.858Z,75.92
2017-06-11T00:24:40.434Z,75.89
2017-06-11T00:25:41.011Z,76.79
2017-06-11T00:26:41.589Z,77.46
2017-06-11T00:27:42.168Z,76.59
2017-06-11T00:28:42.746Z,76.56
2017-06-11T00:29:43.337Z,76.84
2017-06-11T00:30:43.929Z,77.13
2017-06-11T00:31:44.507Z,78.67
2017-06-11T00:32:45.086Z,77.80
2017-06-11T00:33:45.665Z,76.46
2017-06-11T00:34:46.245Z,77.42
2017-06-11T00:35:46.822Z,77.13
2017-06-11T00:36:47.400Z,77.90
2017-06-11T00:37:47.977Z,77.23
2017-06-11T00:38:48.555Z,77.80
2017-06-11T00:39:49.135Z,76.56
2017-06-11T00:40:49.725Z,77.51
2017-06-11T00:41:50.304Z,77.61
2017-06-11T00:42:50.883Z,78.09
2017-06-11T00:43:51.474Z,78.38
2017-06-11T00:44:52.053Z,77.80
2017-06-11T00:45:52.632Z,77.04
2017-06-11T00:46:53.225Z,77.51
2017-06-11T00:47:53.804Z,78.38
2017-06-11T00:48:54.397Z,78.28
2017-06-11T00:49:54.975Z,78.19
2017-06-11T00:50:55.555Z,78.86
2017-06-11T00:51:56.147Z,77.33
2017-06-11T00:52:56.725Z,77.71
2017-06-11T00:53:57.305Z,78.38
2017-06-11T00:54:57.883Z,78.09
2017-06-11T00:55:58.463Z,77.90
2017-06-11T00:56:59.039Z,79.63
2017-06-11T00:57:59.617Z,78.34
2017-06-11T00:59:00.195Z,79.72
2017-06-11T01:00:00.773Z,78.47
2017-06-11T01:01:01.350Z,78.77
2017-06-11T01:02:01.928Z,80.40
2017-06-11T01:03:02.505Z,79.21
2017-06-11T01:04:03.086Z,78.34
2017-06-11T01:05:03.665Z,79.59
2017-06-11T01:06:04.245Z,80.07
2017-06-11T01:07:04.827Z,79.30
2017-06-11T01:08:05.405Z,79.88
2017-06-11T01:09:05.982Z,79.21
2017-06-11T01:10:06.562Z,78.72
2017-06-11T01:11:07.138Z,79.39
2017-06-11T01:12:07.716Z,80.89
2017-06-11T01:13:08.306Z,81.52
2017-06-11T01:14:08.901Z,82.38
2017-06-11T01:15:09.475Z,83.58
2017-06-11T01:16:10.052Z,81.18
2017-06-11T01:17:10.630Z,81.62
2017-06-11T01:18:11.207Z,82.09
2017-06-11T01:19:11.787Z,83.05
2017-06-11T01:20:12.376Z,83.05
2017-06-11T01:21:12.954Z,83.05
2017-06-11T01:22:13.536Z,84.11
2017-06-11T01:23:14.125Z,83.63
2017-06-11T01:24:14.703Z,83.05
2017-06-11T01:25:15.281Z,83.15
2017-06-11T01:26:15.859Z,83.92
2017-06-11T01:27:16.439Z,83.34
2017-06-11T01:28:17.016Z,84.20
2017-06-11T01:29:17.595Z,85.16
2017-06-11T01:30:18.172Z,84.83
2017-06-11T01:31:18.748Z,85.12
2017-06-11T01:32:19.337Z,85.25
2017-06-11T01:33:19.915Z,84.11
2017-06-11T01:34:20.494Z,83.05
2017-06-11T01:35:21.071Z,84.11
2017-06-11T01:36:21.649Z,83.92
2017-06-11T01:37:22.227Z,83.97
2017-06-11T01:38:22.801Z,84.83
2017-06-11T01:39:23.378Z,84.92
2017-06-11T01:40:23.954Z,85.83
2017-06-11T01:41:24.531Z,85.16
2017-06-11T01:42:25.108Z,84.39
2017-06-11T01:43:25.685Z,84.78
2017-06-11T01:44:26.261Z,85.06
2017-06-11T01:45:26.849Z,84.30
2017-06-11T01:46:27.425Z,84.58
2017-06-11T01:47:28.015Z,85.35
2017-06-11T01:48:28.593Z,85.21
2017-06-11T01:49:29.170Z,85.54
2017-06-11T01:50:29.748Z,85.16
2017-06-11T01:51:30.324Z,85.25
2017-06-11T01:52:30.901Z,85.45
2017-06-11T01:53:31.478Z,85.16
2017-06-11T01:54:32.056Z,84.88
2017-06-11T01:55:32.632Z,84.88
2017-06-11T01:56:33.209Z,85.93
2017-06-11T01:57:33.786Z,85.21
2017-06-11T01:58:34.362Z,85.83
2017-06-11T01:59:34.939Z,85.79
2017-06-11T02:00:35.516Z,85.69
2017-06-11T02:01:36.093Z,86.17
2017-06-11T02:02:36.669Z,86.17
2017-06-11T02:03:37.245Z,86.12
2017-06-11T02:04:37.824Z,85.98
2017-06-11T02:05:38.402Z,86.94
2017-06-11T02:06:38.979Z,87.85
2017-06-11T02:07:39.558Z,88.09
2017-06-11T02:08:40.133Z,87.23
2017-06-11T02:09:40.716Z,87.23
2017-06-11T02:10:41.287Z,87.13
2017-06-11T02:11:41.865Z,87.03
2017-06-11T02:12:42.441Z,85.35
2017-06-11T02:13:43.018Z,86.27
2017-06-11T02:14:43.607Z,87.03
2017-06-11T02:15:44.185Z,86.36
2017-06-11T02:16:44.773Z,86.74
2017-06-11T02:17:45.364Z,86.65
2017-06-11T02:18:45.939Z,87.51
2017-06-11T02:19:46.516Z,87.61
2017-06-11T02:20:47.093Z,87.41
2017-06-11T02:21:47.670Z,87.90
2017-06-11T02:22:48.246Z,87.90
2017-06-11T02:23:48.825Z,86.46
2017-06-11T02:24:49.402Z,88.03
2017-06-11T02:25:49.980Z,85.98
2017-06-11T02:26:50.559Z,86.55
2017-06-11T02:27:51.134Z,86.60
2017-06-11T02:28:51.711Z,86.55
2017-06-11T02:29:52.288Z,86.55
2017-06-11T02:30:52.864Z,86.74
2017-06-11T02:31:53.440Z,87.90
2017-06-11T02:32:54.017Z,87.41
2017-06-11T02:33:54.595Z,87.99
2017-06-11T02:34:55.171Z,87.51
2017-06-11T02:35:55.747Z,88.33
2017-06-11T02:36:56.324Z,88.62
2017-06-11T02:37:56.912Z,88.04
2017-06-11T02:38:57.488Z,88.56
2017-06-11T02:39:58.064Z,88.90
2017-06-11T02:40:58.640Z,89.14
2017-06-11T02:41:59.216Z,89.09
2017-06-11T02:42:59.792Z,89.67
2017-06-11T02:44:00.370Z,89.48
2017-06-11T02:45:00.946Z,90.15
2017-06-11T02:46:01.523Z,89.38
2017-06-11T02:47:02.099Z,89.29
2017-06-11T02:48:02.689Z,89.62
2017-06-11T02:49:03.267Z,89.29
2017-06-11T02:50:03.842Z,89.04
2017-06-11T02:51:04.419Z,89.29
2017-06-11T02:52:04.994Z,90.34
2017-06-11T02:53:05.570Z,89.38
2017-06-11T02:54:06.149Z,89.38
2017-06-11T02:55:06.723Z,90.24
2017-06-11T02:56:07.298Z,90.44
2017-06-11T02:57:07.874Z,89.95
2017-06-11T02:58:08.449Z,89.48
2017-06-11T02:59:09.025Z,89.19
2017-06-11T03:00:09.604Z,90.44
2017-06-11T03:01:10.178Z,89.95
2017-06-11T03:02:10.759Z,90.44
2017-06-11T03:03:11.336Z,89.76
2017-06-11T03:04:11.916Z,89.86
2017-06-11T03:05:12.493Z,89.19
2017-06-11T03:06:13.070Z,90.15
2017-06-11T03:07:13.661Z,90.72
2017-06-11T03:08:14.237Z,90.15
2017-06-11T03:09:14.832Z,89.86
2017-06-11T03:10:15.417Z,89.95
2017-06-11T03:11:15.993Z,90.15
2017-06-11T03:12:16.569Z,89.67
2017-06-11T03:13:17.150Z,89.86
2017-06-11T03:14:17.726Z,90.24
2017-06-11T03:15:18.305Z,90.44
2017-06-11T03:16:18.880Z,90.34
2017-06-11T03:17:19.459Z,89.86
2017-06-11T03:18:20.051Z,90.62
2017-06-11T03:19:20.627Z,89.62
2017-06-11T03:20:21.207Z,88.51
2017-06-11T03:21:21.782Z,87.31
2017-06-11T03:22:22.360Z,84.78
2017-06-11T03:23:22.937Z,85.54
2017-06-11T03:24:23.513Z,84.82
2017-06-11T03:25:24.091Z,84.11
2017-06-11T03:26:24.668Z,85.11
2017-06-11T03:27:25.246Z,82.90
2017-06-11T03:28:25.825Z,84.44
2017-06-11T03:29:26.404Z,85.35
2017-06-11T03:30:26.981Z,87.55
2017-06-11T03:31:27.558Z,86.60
2017-06-11T03:32:28.155Z,86.88
2017-06-11T03:33:28.725Z,87.37
2017-06-11T03:34:29.317Z,87.37
2017-06-11T03:35:29.898Z,87.51
2017-06-11T03:36:30.473Z,87.94
2017-06-11T03:37:31.051Z,88.32
2017-06-11T03:38:31.630Z,86.69
2017-06-11T03:39:32.205Z,86.12
2017-06-11T03:40:32.783Z,85.25
2017-06-11T03:41:33.374Z,85.01
2017-06-11T03:42:33.952Z,86.88
2017-06-11T03:43:34.530Z,88.47
2017-06-11T03:44:35.108Z,89.43
2017-06-11T03:45:35.688Z,90.09
2017-06-11T03:46:36.267Z,89.18
2017-06-11T03:47:36.845Z,89.18
2017-06-11T03:48:37.423Z,89.23
2017-06-11T03:49:38.000Z,89.18
2017-06-11T03:50:38.578Z,88.18
2017-06-11T03:51:39.154Z,89.52
2017-06-11T03:52:39.733Z,89.52
2017-06-11T03:53:40.310Z,89.62
2017-06-11T03:54:40.889Z,90.29
2017-06-11T03:55:41.467Z,88.51
2017-06-11T03:56:42.071Z,87.27
2017-06-11T03:57:42.624Z,88.03
2017-06-11T03:58:43.201Z,87.55
2017-06-11T03:59:43.779Z,88.13
2017-06-11T04:00:44.371Z,87.74
2017-06-11T04:01:44.950Z,88.51
2017-06-11T04:02:45.528Z,85.30
2017-06-11T04:03:46.105Z,86.35
2017-06-11T04:04:46.685Z,86.45
2017-06-11T04:05:47.264Z,84.82
2017-06-11T04:06:47.844Z,82.94
2017-06-11T04:07:48.423Z,82.94
2017-06-11T04:08:49.002Z,81.51
2017-06-11T04:09:49.580Z,81.93
2017-06-11T04:10:50.162Z,81.45
2017-06-11T04:11:50.742Z,80.87
2017-06-11T04:12:51.319Z,80.49
2017-06-11T04:13:51.899Z,80.49
2017-06-11T04:14:52.479Z,79.05
2017-06-11T04:15:53.059Z,77.36
2017-06-11T04:16:53.640Z,77.75
2017-06-11T04:17:54.220Z,77.56
2017-06-11T04:18:54.799Z,77.75
2017-06-11T04:19:55.377Z,77.26
2017-06-11T04:20:55.961Z,77.75
2017-06-11T04:21:56.540Z,76.40
2017-06-11T04:22:57.132Z,75.77
2017-06-11T04:23:57.713Z,76.25
2017-06-11T04:24:58.295Z,75.48
2017-06-11T04:25:58.875Z,76.34
2017-06-11T04:26:59.462Z,76.15
2017-06-11T04:28:00.048Z,75.38
2017-06-11T04:29:00.626Z,74.52
2017-06-11T04:30:01.208Z,75.29
2017-06-11T04:31:01.788Z,75.10
2017-06-11T04:32:02.369Z,74.65
2017-06-11T04:33:02.948Z,75.23
2017-06-11T04:34:03.527Z,74.55
2017-06-11T04:35:04.106Z,74.46
2017-06-11T04:36:04.686Z,74.46
2017-06-11T04:37:05.267Z,74.81
2017-06-11T04:38:05.858Z,74.85
2017-06-11T04:39:06.440Z,75.04
2017-06-11T04:40:07.021Z,75.52
2017-06-11T04:41:07.603Z,74.85
2017-06-11T04:42:08.182Z,74.55
2017-06-11T04:43:08.775Z,74.85
2017-06-11T04:44:09.356Z,74.46
2017-06-11T04:45:09.938Z,74.46
2017-06-11T04:46:10.519Z,74.75
2017-06-11T04:47:11.101Z,74.65
2017-06-11T04:48:11.681Z,74.17
2017-06-11T04:49:12.261Z,73.69
2017-06-11T04:50:12.845Z,73.79
2017-06-11T04:51:13.423Z,74.27
2017-06-11T04:52:14.005Z,73.69
2017-06-11T04:53:14.584Z,73.11
2017-06-11T04:54:15.164Z,73.50
2017-06-11T04:55:15.748Z,73.98
2017-06-11T04:56:16.328Z,74.08
2017-06-11T04:57:16.922Z,74.17
2017-06-11T04:58:17.504Z,73.88
2017-06-11T04:59:18.085Z,74.46
2017-06-11T05:00:18.666Z,73.98
2017-06-11T05:01:19.249Z,74.27
2017-06-11T05:02:19.830Z,74.17
2017-06-11T05:03:20.412Z,73.41
2017-06-11T05:04:20.994Z,73.60
2017-06-11T05:05:21.575Z,73.11
2017-06-11T05:06:22.168Z,73.69
2017-06-11T05:07:22.747Z,73.79
2017-06-11T05:08:23.329Z,73.06
2017-06-11T05:09:23.911Z,73.21
2017-06-11T05:10:24.492Z,73.02
2017-06-11T05:11:25.073Z,72.67
2017-06-11T05:12:25.657Z,72.86
2017-06-11T05:13:26.238Z,73.35
2017-06-11T05:14:26.819Z,72.48
2017-06-11T05:15:27.400Z,72.67
2017-06-11T05:16:27.994Z,72.00
2017-06-11T05:17:28.575Z,71.81
2017-06-11T05:18:29.157Z,72.67
2017-06-11T05:19:29.738Z,71.91
2017-06-11T05:20:30.321Z,71.23
2017-06-11T05:21:30.908Z,71.91
2017-06-11T05:22:31.496Z,71.71
2017-06-11T05:23:32.078Z,71.33
2017-06-11T05:24:32.659Z,71.81
2017-06-11T05:25:33.241Z,72.00
2017-06-11T05:26:33.825Z,71.52
2017-06-11T05:27:34.406Z,72.00
2017-06-11T05:28:34.987Z,71.91
2017-06-11T05:29:35.568Z,71.81
2017-06-11T05:30:36.151Z,72.38
2017-06-11T05:31:36.734Z,72.48
2017-06-11T05:32:37.314Z,72.19
2017-06-11T05:33:37.909Z,71.61
2017-06-11T05:34:38.491Z,71.23
2017-06-11T05:35:39.071Z,71.42
2017-06-11T05:36:39.653Z,71.42
2017-06-11T05:37:40.236Z,71.04
2017-06-11T05:38:40.817Z,71.36
2017-06-11T05:39:41.398Z,71.08
2017-06-11T05:40:41.978Z,71.17
2017-06-11T05:41:42.560Z,70.78
2017-06-11T05:42:43.143Z,71.71
2017-06-11T05:43:43.724Z,71.26
2017-06-11T05:44:44.305Z,71.17
2017-06-11T05:45:44.887Z,70.78
2017-06-11T05:46:45.468Z,70.59
2017-06-11T05:47:46.052Z,70.68
2017-06-11T05:48:46.633Z,70.78
2017-06-11T05:49:47.213Z,70.65
2017-06-11T05:50:47.802Z,70.30
2017-06-11T05:51:48.392Z,70.78
2017-06-11T05:52:48.974Z,70.78
2017-06-11T05:53:49.558Z,70.68
2017-06-11T05:54:50.139Z,71.08
2017-06-11T05:55:50.721Z,70.59
2017-06-11T05:56:51.314Z,71.36
2017-06-11T05:57:51.895Z,71.17
2017-06-11T05:58:52.477Z,70.11
2017-06-11T05:59:53.060Z,70.01
2017-06-11T06:00:53.640Z,70.59
2017-06-11T06:01:54.222Z,70.98
2017-06-11T06:02:54.802Z,70.30
2017-06-11T06:03:55.384Z,69.82
2017-06-11T06:04:55.969Z,70.30
2017-06-11T06:05:56.549Z,70.78
2017-06-11T06:06:57.130Z,70.40
2017-06-11T06:07:57.710Z,70.30
2017-06-11T06:08:58.292Z,69.92
2017-06-11T06:09:58.876Z,69.73
2017-06-11T06:10:59.455Z,70.30
2017-06-11T06:12:00.036Z,69.63
2017-06-11T06:13:00.617Z,69.63
2017-06-11T06:14:01.199Z,69.85
2017-06-11T06:15:01.781Z,69.18
2017-06-11T06:16:02.363Z,68.48
2017-06-11T06:17:02.946Z,68.76
2017-06-11T06:18:03.527Z,69.34
2017-06-11T06:19:04.109Z,69.34
2017-06-11T06:20:04.693Z,68.90
2017-06-11T06:21:05.275Z,69.38
2017-06-11T06:22:05.854Z,69.57
2017-06-11T06:23:06.441Z,69.28
2017-06-11T06:24:07.016Z,68.70
2017-06-11T06:25:07.600Z,68.60
2017-06-11T06:26:08.182Z,68.51
2017-06-11T06:27:08.762Z,68.51
2017-06-11T06:28:09.342Z,68.70
2017-06-11T06:29:09.925Z,68.80
2017-06-11T06:30:10.508Z,69.09
2017-06-11T06:31:11.090Z,68.22
2017-06-11T06:32:11.674Z,68.32
2017-06-11T06:33:12.266Z,68.41
2017-06-11T06:34:12.847Z,68.13
2017-06-11T06:35:13.428Z,68.51
2017-06-11T06:36:14.015Z,68.60
2017-06-11T06:37:14.593Z,68.74
2017-06-11T06:38:15.179Z,68.80
2017-06-11T06:39:15.770Z,69.67
2017-06-11T06:40:16.352Z,70.05
2017-06-11T06:41:16.932Z,69.79
2017-06-11T06:42:17.516Z,69.79
2017-06-11T06:43:18.098Z,69.22
2017-06-11T06:44:18.681Z,69.31
2017-06-11T06:45:19.263Z,69.22
2017-06-11T06:46:19.844Z,69.89
2017-06-11T06:47:20.428Z,69.41
2017-06-11T06:48:21.011Z,69.70
2017-06-11T06:49:21.593Z,69.22
2017-06-11T06:50:22.175Z,69.51
2017-06-11T06:51:22.771Z,69.85
2017-06-11T06:52:23.354Z,69.89
2017-06-11T06:53:23.935Z,69.31
2017-06-11T06:54:24.518Z,69.60
2017-06-11T06:55:25.101Z,69.41
2017-06-11T06:56:25.682Z,68.44
2017-06-11T06:57:26.265Z,69.22
2017-06-11T06:58:26.848Z,68.74
2017-06-11T06:59:27.429Z,69.70
2017-06-11T07:00:28.012Z,68.87
2017-06-11T07:01:28.593Z,69.25
2017-06-11T07:02:29.175Z,69.31
2017-06-11T07:03:29.759Z,69.83
2017-06-11T07:04:30.343Z,68.87
2017-06-11T07:05:30.923Z,68.77
2017-06-11T07:06:31.504Z,68.38
2017-06-11T07:07:32.088Z,67.71
2017-06-11T07:08:32.671Z,68.61
2017-06-11T07:09:33.253Z,68.38
2017-06-11T07:10:33.835Z,68.68
2017-06-11T07:11:34.417Z,68.29
2017-06-11T07:12:34.999Z,68.38
2017-06-11T07:13:35.583Z,68.19
2017-06-11T07:14:36.165Z,68.48
2017-06-11T07:15:36.746Z,68.00
2017-06-11T07:16:37.329Z,68.42
2017-06-11T07:17:37.914Z,68.19
2017-06-11T07:18:38.495Z,68.87
2017-06-11T07:19:39.078Z,68.99
2017-06-11T07:20:39.674Z,68.90
2017-06-11T07:21:40.255Z,69.29
2017-06-11T07:22:40.836Z,68.71
2017-06-11T07:23:41.418Z,68.32
2017-06-11T07:24:42.003Z,68.52
2017-06-11T07:25:42.585Z,68.52
2017-06-11T07:26:43.167Z,68.26
2017-06-11T07:27:43.753Z,68.45
2017-06-11T07:28:44.333Z,68.35
2017-06-11T07:29:44.918Z,68.45
2017-06-11T07:30:45.500Z,67.97
2017-06-11T07:31:46.082Z,68.55
2017-06-11T07:32:46.666Z,68.65
2017-06-11T07:33:47.248Z,68.59
2017-06-11T07:34:47.832Z,68.07
2017-06-11T07:35:48.415Z,68.55
2017-06-11T07:36:48.998Z,68.29
2017-06-11T07:37:49.581Z,68.49
2017-06-11T07:38:50.163Z,68.49
2017-06-11T07:39:50.747Z,67.62
2017-06-11T07:40:51.329Z,68.49
2017-06-11T07:41:51.912Z,68.33
2017-06-11T07:42:52.495Z,67.91
2017-06-11T07:43:53.078Z,67.85
2017-06-11T07:44:53.662Z,67.62
2017-06-11T07:45:54.243Z,67.46
2017-06-11T07:46:54.827Z,67.55
2017-06-11T07:47:55.411Z,67.07
2017-06-11T07:48:55.995Z,67.85
2017-06-11T07:49:56.592Z,66.88
2017-06-11T07:50:57.174Z,65.66
2017-06-11T07:51:57.758Z,64.89
2017-06-11T07:52:58.341Z,64.50
2017-06-11T07:53:58.924Z,64.98
2017-06-11T07:54:59.506Z,65.17
2017-06-11T07:56:00.089Z,65.37
2017-06-11T07:57:00.673Z,65.78
2017-06-11T07:58:01.269Z,64.92
2017-06-11T07:59:01.851Z,64.63
2017-06-11T08:00:02.435Z,64.72
2017-06-11T08:01:03.017Z,65.78
2017-06-11T08:02:03.600Z,64.11
2017-06-11T08:03:04.181Z,64.11
2017-06-11T08:04:04.764Z,64.53
2017-06-11T08:05:05.350Z,62.50
2017-06-11T08:06:05.932Z,62.76
2017-06-11T08:07:06.516Z,63.95
2017-06-11T08:08:07.098Z,63.85
2017-06-11T08:09:07.681Z,63.66
2017-06-11T08:10:08.265Z,62.89
2017-06-11T08:11:08.848Z,63.11
2017-06-11T08:12:09.433Z,63.18
2017-06-11T08:13:10.015Z,63.11
2017-06-11T08:14:10.602Z,62.73
2017-06-11T08:15:11.183Z,63.73
2017-06-11T08:16:11.765Z,63.34
2017-06-11T08:17:12.349Z,62.11
2017-06-11T08:18:12.932Z,62.76
2017-06-11T08:19:13.516Z,62.56
2017-06-11T08:20:14.101Z,61.89
2017-06-11T08:21:14.685Z,62.08
2017-06-11T08:22:15.269Z,61.82
2017-06-11T08:23:15.853Z,61.63
2017-06-11T08:24:16.434Z,61.43
2017-06-11T08:25:17.032Z,61.02
2017-06-11T08:26:17.616Z,61.33
2017-06-11T08:27:18.199Z,60.57
2017-06-11T08:28:18.784Z,60.75
2017-06-11T08:29:19.370Z,60.50
2017-06-11T08:30:19.953Z,60.52
2017-06-11T08:31:20.538Z,60.04
2017-06-11T08:32:21.121Z,58.39
2017-06-11T08:33:21.706Z,58.11
2017-06-11T08:34:22.289Z,58.20
2017-06-11T08:35:22.878Z,58.49
2017-06-11T08:36:23.458Z,58.59
2017-06-11T08:37:24.042Z,58.30
2017-06-11T08:38:24.627Z,58.20
2017-06-11T08:39:25.213Z,57.62
2017-06-11T08:40:25.797Z,57.43
2017-06-11T08:41:26.381Z,56.94
2017-06-11T08:42:26.967Z,57.43
2017-06-11T08:43:27.551Z,57.14
2017-06-11T08:44:28.135Z,57.04
2017-06-11T08:45:28.718Z,57.59
2017-06-11T08:46:29.301Z,56.79
2017-06-11T08:47:29.889Z,57.98
2017-06-11T08:48:30.471Z,57.59
2017-06-11T08:49:31.068Z,57.18
2017-06-11T08:50:31.652Z,57.18
2017-06-11T08:51:32.237Z,57.50
2017-06-11T08:52:32.818Z,58.11
2017-06-11T08:53:33.403Z,56.97
2017-06-11T08:54:33.984Z,57.04
2017-06-11T08:55:34.570Z,56.39
2017-06-11T08:56:35.151Z,55.98
2017-06-11T08:57:35.736Z,57.45
2017-06-11T08:58:36.322Z,57.36
2017-06-11T08:59:36.906Z,56.71
2017-06-11T09:00:37.503Z,56.71
2017-06-11T09:01:38.086Z,56.20
2017-06-11T09:02:38.670Z,56.59
2017-06-11T09:03:39.254Z,56.51
2017-06-11T09:04:39.838Z,54.96
2017-06-11T09:05:40.424Z,53.87
2017-06-11T09:06:41.006Z,55.32
2017-06-11T09:07:41.592Z,54.96
2017-06-11T09:08:42.176Z,54.31
2017-06-11T09:09:42.759Z,54.90
2017-06-11T09:10:43.356Z,55.11
2017-06-11T09:11:43.940Z,54.36
2017-06-11T09:12:44.527Z,52.59
2017-06-11T09:13:45.110Z,53.37
2017-06-11T09:14:45.693Z,52.08
2017-06-11T09:15:46.276Z,52.47
2017-06-11T09:16:46.861Z,52.18
2017-06-11T09:17:47.444Z,51.96
2017-06-11T09:18:48.031Z,53.22
2017-06-11T09:19:48.613Z,53.44
2017-06-11T09:20:49.198Z,52.30
2017-06-11T09:21:49.782Z,51.86
2017-06-11T09:22:50.366Z,51.89
2017-06-11T09:23:50.949Z,51.89
2017-06-11T09:24:51.534Z,51.23
2017-06-11T09:25:52.130Z,51.53
2017-06-11T09:26:52.714Z,50.56
2017-06-11T09:27:53.299Z,50.56
2017-06-11T09:28:53.883Z,50.14
2017-06-11T09:29:54.467Z,50.89
2017-06-11T09:30:55.064Z,51.79
2017-06-11T09:31:55.650Z,51.79
2017-06-11T09:32:56.233Z,52.08
2017-06-11T09:33:56.818Z,51.04
2017-06-11T09:34:57.415Z,49.92
2017-06-11T09:35:58.002Z,49.24
2017-06-11T09:36:58.582Z,50.79
2017-06-11T09:37:59.168Z,50.34
2017-06-11T09:38:59.752Z,50.12
2017-06-11T09:40:00.336Z,49.07
2017-06-11T09:41:00.922Z,49.17
2017-06-11T09:42:01.507Z,50.12
2017-06-11T09:43:02.103Z,49.92
2017-06-11T09:44:02.691Z,49.05
2017-06-11T09:45:03.270Z,49.66
2017-06-11T09:46:03.865Z,49.77
2017-06-11T09:47:04.450Z,49.75
2017-06-11T09:48:05.035Z,49.54
2017-06-11T09:49:05.619Z,50.24
2017-06-11T09:50:06.204Z,50.43
2017-06-11T09:51:06.787Z,50.14
2017-06-11T09:52:07.371Z,51.14
2017-06-11T09:53:07.957Z,50.07
2017-06-11T09:54:08.542Z,50.68
2017-06-11T09:55:09.126Z,49.24
2017-06-11T09:56:09.721Z,49.39
2017-06-11T09:57:10.330Z,49.51
2017-06-11T09:58:10.888Z,50.07
2017-06-11T09:59:11.473Z,49.80
2017-06-11T10:00:12.058Z,48.75
2017-06-11T10:01:12.640Z,48.00
2017-06-11T10:02:13.226Z,47.42
2017-06-11T10:03:13.809Z,47.30
2017-06-11T10:04:14.394Z,48.27
2017-06-11T10:05:14.978Z,48.39
2017-06-11T10:06:15.563Z,48.20
2017-06-11T10:07:16.150Z,47.52
2017-06-11T10:08:16.745Z,47.28
2017-06-11T10:09:17.328Z,48.25
2017-06-11T10:10:17.911Z,47.28
2017-06-11T10:11:18.495Z,47.47
2017-06-11T10:12:19.083Z,47.28
2017-06-11T10:13:19.665Z,47.38
2017-06-11T10:14:20.249Z,46.84
2017-06-11T10:15:20.832Z,45.57
2017-06-11T10:16:21.418Z,45.94
2017-06-11T10:17:22.016Z,44.79
2017-06-11T10:18:22.600Z,45.57
2017-06-11T10:19:23.186Z,44.70
2017-06-11T10:20:23.782Z,45.50
2017-06-11T10:21:24.366Z,44.04
2017-06-11T10:22:24.949Z,44.06
2017-06-11T10:23:25.535Z,43.87
2017-06-11T10:24:26.119Z,42.19
2017-06-11T10:25:26.702Z,44.56
2017-06-11T10:26:27.288Z,45.26
2017-06-11T10:27:27.873Z,45.48
2017-06-11T10:28:28.471Z,45.21
2017-06-11T10:29:29.059Z,44.68
2017-06-11T10:30:29.657Z,44.68
2017-06-11T10:31:30.251Z,46.45
2017-06-11T10:32:30.836Z,45.67
2017-06-11T10:33:31.425Z,44.82
2017-06-11T10:34:32.005Z,44.24
2017-06-11T10:35:32.590Z,44.37
2017-06-11T10:36:33.176Z,45.82
2017-06-11T10:37:33.760Z,46.81
2017-06-11T10:38:34.352Z,45.28
2017-06-11T10:39:34.929Z,45.50
2017-06-11T10:40:35.514Z,44.92
2017-06-11T10:41:36.099Z,44.16
2017-06-11T10:42:36.684Z,44.16
2017-06-11T10:43:37.281Z,43.87
2017-06-11T10:44:37.865Z,43.29
2017-06-11T10:45:38.459Z,43.07
2017-06-11T10:46:39.035Z,42.80
2017-06-11T10:47:39.618Z,43.19
2017-06-11T10:48:40.215Z,43.48
2017-06-11T10:49:40.798Z,43.75
2017-06-11T10:50:41.395Z,44.12
2017-06-11T10:51:41.978Z,45.09
2017-06-11T10:52:42.567Z,44.94
2017-06-11T10:53:43.160Z,43.95
2017-06-11T10:54:43.746Z,43.85
2017-06-11T10:55:44.331Z,43.38
2017-06-11T10:56:44.915Z,45.04
2017-06-11T10:57:45.500Z,44.89
2017-06-11T10:58:46.097Z,43.52
2017-06-11T10:59:46.683Z,42.66
2017-06-11T11:00:47.279Z,42.47
2017-06-11T11:01:47.864Z,43.18
2017-06-11T11:02:48.450Z,42.59
2017-06-11T11:03:49.035Z,41.69
2017-06-11T11:04:49.618Z,42.28
2017-06-11T11:05:50.204Z,41.67
2017-06-11T11:06:50.797Z,42.14
2017-06-11T11:07:51.377Z,42.90
2017-06-11T11:08:51.974Z,43.87
2017-06-11T11:09:52.559Z,42.72
2017-06-11T11:10:53.143Z,41.55
2017-06-11T11:11:53.731Z,42.11
2017-06-11T11:12:54.317Z,42.80
2017-06-11T11:13:54.902Z,42.70
2017-06-11T11:14:55.486Z,43.89
2017-06-11T11:15:56.072Z,43.99
2017-06-11T11:16:56.658Z,43.89
2017-06-11T11:17:57.257Z,41.01
2017-06-11T11:18:57.843Z,41.03
2017-06-11T11:19:58.426Z,39.98
2017-06-11T11:20:59.012Z,39.37
2017-06-11T11:21:59.597Z,39.29
2017-06-11T11:23:00.182Z,38.61
2017-06-11T11:24:00.767Z,39.28
2017-06-11T11:25:01.353Z,39.75
2017-06-11T11:26:01.942Z,39.65
2017-06-11T11:27:02.527Z,39.00
2017-06-11T11:28:03.111Z,39.98
2017-06-11T11:29:03.708Z,40.37
2017-06-11T11:30:04.294Z,40.97
2017-06-11T11:31:04.880Z,39.72
2017-06-11T11:32:05.468Z,39.82
2017-06-11T11:33:06.054Z,39.80
2017-06-11T11:34:06.638Z,40.21
2017-06-11T11:35:07.225Z,40.80
2017-06-11T11:36:07.811Z,40.91
2017-06-11T11:37:08.398Z,40.35
2017-06-11T11:38:08.982Z,39.69
2017-06-11T11:39:09.567Z,39.94
2017-06-11T11:40:10.154Z,40.33
2017-06-11T11:41:10.739Z,40.35
2017-06-11T11:42:11.337Z,40.64
2017-06-11T11:43:11.936Z,40.45
2017-06-11T11:44:12.534Z,40.35
2017-06-11T11:45:13.119Z,39.88
2017-06-11T11:46:13.706Z,39.69
2017-06-11T11:47:14.292Z,39.47
2017-06-11T11:48:14.879Z,40.37
2017-06-11T11:49:15.464Z,40.47
2017-06-11T11:50:16.050Z,39.12
2017-06-11T11:51:16.647Z,39.90
2017-06-11T11:52:17.234Z,38.69
2017-06-11T11:53:17.818Z,39.51
2017-06-11T11:54:18.405Z,38.35
2017-06-11T11:55:18.990Z,37.85
2017-06-11T11:56:19.576Z,37.25
2017-06-11T11:57:20.163Z,38.40
2017-06-11T11:58:20.748Z,38.48
2017-06-11T11:59:21.334Z,39.24
2017-06-11T12:00:21.922Z,40.01
2017-06-11T12:01:22.506Z,39.45
2017-06-11T12:02:23.092Z,39.06
2017-06-11T12:03:23.677Z,39.94
2017-06-11T12:04:24.264Z,40.11
2017-06-11T12:05:24.852Z,39.82
2017-06-11T12:06:25.437Z,39.04
2017-06-11T12:07:26.022Z,40.01
2017-06-11T12:08:26.611Z,39.12
2017-06-11T12:09:27.195Z,39.12
2017-06-11T12:10:27.780Z,39.61
2017-06-11T12:11:28.365Z,39.80
2017-06-11T12:12:28.950Z,39.90
2017-06-11T12:13:29.546Z,40.01
2017-06-11T12:14:30.133Z,38.54
2017-06-11T12:15:30.721Z,38.85
2017-06-11T12:16:31.304Z,39.84
2017-06-11T12:17:31.891Z,38.67
2017-06-11T12:18:32.476Z,38.77
2017-06-11T12:19:33.063Z,37.21
2017-06-11T12:20:33.947Z,38.49
2017-06-11T12:21:34.533Z,38.12
2017-06-11T12:22:35.123Z,37.35
2017-06-11T12:23:35.706Z,38.14
2017-06-11T12:24:36.289Z,37.46
2017-06-11T12:25:36.878Z,36.58
2017-06-11T12:26:37.463Z,36.10
2017-06-11T12:27:38.048Z,35.86
2017-06-11T12:28:38.635Z,37.65
2017-06-11T12:29:39.220Z,36.47
2017-06-11T12:30:39.808Z,35.98
2017-06-11T12:31:40.394Z,36.27
2017-06-11T12:32:40.980Z,36.35
2017-06-11T12:33:41.567Z,36.72
2017-06-11T12:34:42.153Z,37.45
2017-06-11T12:35:42.739Z,36.92
2017-06-11T12:36:43.327Z,37.91
2017-06-11T12:37:43.915Z,37.89
2017-06-11T12:38:44.511Z,38.05
2017-06-11T12:39:45.098Z,38.64
2017-06-11T12:40:45.682Z,38.73
2017-06-11T12:41:46.269Z,39.20
2017-06-11T12:42:46.857Z,39.12
2017-06-11T12:43:47.445Z,39.22
2017-06-11T12:44:48.028Z,38.73
2017-06-11T12:45:48.614Z,38.54
2017-06-11T12:46:49.199Z,38.34
2017-06-11T12:47:49.785Z,39.41
2017-06-11T12:48:50.371Z,39.43
2017-06-11T12:49:50.970Z,38.95
2017-06-11T12:50:51.555Z,39.80
2017-06-11T12:51:52.142Z,38.93
2017-06-11T12:52:52.726Z,38.73
2017-06-11T12:53:53.312Z,38.52
2017-06-11T12:54:53.898Z,38.73
2017-06-11T12:55:54.484Z,39.61
2017-06-11T12:56:55.067Z,38.34
2017-06-11T12:57:55.652Z,39.04
2017-06-11T12:58:56.238Z,39.92
2017-06-11T12:59:56.824Z,38.34